sensor_id;sensor_type;location;lat;lon;timestamp;temperature;humidity
6462;DHT22;3264;42.862;25.098;2023-07-20T00:13:39;22.60;99.70
6462;DHT22;3264;42.862;25.098;2023-07-20T00:16:06;22.70;99.90
6462;DHT22;3264;42.862;25.098;2023-07-20T00:18:34;22.70;99.90
6462;DHT22;3264;42.862;25.098;2023-07-20T00:21:02;22.70;99.90
6462;DHT22;3264;42.862;25.098;2023-07-20T00:23:31;22.60;99.90
6462;DHT22;3264;42.862;25.098;2023-07-20T00:25:59;22.40;99.90
6462;DHT22;3264;42.862;25.098;2023-07-20T00:28:27;22.40;99.90
6462;DHT22;3264;42.862;25.098;2023-07-20T00:30:56;22.50;99.90
6462;DHT22;3264;42.862;25.098;2023-07-20T00:33:27;22.30;99.90
6462;DHT22;3264;42.862;25.098;2023-07-20T00:35:54;22.00;99.90
6462;DHT22;3264;42.862;25.098;2023-07-20T00:38:22;21.50;99.90
6462;DHT22;3264;42.862;25.098;2023-07-20T00:40:52;21.20;99.90
6462;DHT22;3264;42.862;25.098;2023-07-20T00:43:21;20.90;99.90
6462;DHT22;3264;42.862;25.098;2023-07-20T00:45:49;20.80;99.90
6462;DHT22;3264;42.862;25.098;2023-07-20T00:48:22;20.50;99.90
6462;DHT22;3264;42.862;25.098;2023-07-20T00:50:50;20.30;99.90
6462;DHT22;3264;42.862;25.098;2023-07-20T00:53:18;20.20;99.90
6462;DHT22;3264;42.862;25.098;2023-07-20T00:55:47;20.20;99.90
6462;DHT22;3264;42.862;25.098;2023-07-20T00:58:16;20.20;99.90
6462;DHT22;3264;42.862;25.098;2023-07-20T01:00:44;20.10;99.90
6462;DHT22;3264;42.862;25.098;2023-07-20T01:03:11;20.00;99.90
6462;DHT22;3264;42.862;25.098;2023-07-20T01:05:47;20.00;99.90
6462;DHT22;3264;42.862;25.098;2023-07-20T01:08:21;20.00;99.90
6462;DHT22;3264;42.862;25.098;2023-07-20T01:10:56;19.90;99.90
6462;DHT22;3264;42.862;25.098;2023-07-20T01:13:26;19.80;99.90
6462;DHT22;3264;42.862;25.098;2023-07-20T01:15:57;19.80;99.90
6462;DHT22;3264;42.862;25.098;2023-07-20T01:18:28;19.80;99.90
6462;DHT22;3264;42.862;25.098;2023-07-20T01:21:01;19.70;99.90
6462;DHT22;3264;42.862;25.098;2023-07-20T01:32:50;19.60;99.90
6462;DHT22;3264;42.862;25.098;2023-07-20T01:35:27;19.60;99.90
6462;DHT22;3264;42.862;25.098;2023-07-20T01:37:57;19.50;99.90
6462;DHT22;3264;42.862;25.098;2023-07-20T01:40:27;19.50;99.90
6462;DHT22;3264;42.862;25.098;2023-07-20T01:42:55;19.40;99.90
6462;DHT22;3264;42.862;25.098;2023-07-20T01:45:25;19.30;99.90
6462;DHT22;3264;42.862;25.098;2023-07-20T01:47:54;19.40;99.90
6462;DHT22;3264;42.862;25.098;2023-07-20T01:50:22;19.40;99.90
6462;DHT22;3264;42.862;25.098;2023-07-20T01:52:50;19.40;99.90
6462;DHT22;3264;42.862;25.098;2023-07-20T01:55:18;19.40;99.90
6462;DHT22;3264;42.862;25.098;2023-07-20T01:57:47;19.40;99.90
6462;DHT22;3264;42.862;25.098;2023-07-20T02:00:15;19.40;99.90
6462;DHT22;3264;42.862;25.098;2023-07-20T02:02:44;19.50;99.90
6462;DHT22;3264;42.862;25.098;2023-07-20T02:05:21;19.40;99.90
6462;DHT22;3264;42.862;25.098;2023-07-20T02:07:50;19.40;99.90
6462;DHT22;3264;42.862;25.098;2023-07-20T02:10:17;19.40;99.90
6462;DHT22;3264;42.862;25.098;2023-07-20T02:12:45;19.30;99.90
6462;DHT22;3264;42.862;25.098;2023-07-20T02:15:14;19.40;99.90
6462;DHT22;3264;42.862;25.098;2023-07-20T02:17:45;19.50;99.90
6462;DHT22;3264;42.862;25.098;2023-07-20T02:20:14;19.40;99.90
6462;DHT22;3264;42.862;25.098;2023-07-20T02:22:44;19.30;99.90
6462;DHT22;3264;42.862;25.098;2023-07-20T02:25:11;19.40;99.90
6462;DHT22;3264;42.862;25.098;2023-07-20T02:27:39;19.30;99.90
6462;DHT22;3264;42.862;25.098;2023-07-20T02:30:10;19.40;99.90
6462;DHT22;3264;42.862;25.098;2023-07-20T02:32:38;19.30;99.90
6462;DHT22;3264;42.862;25.098;2023-07-20T02:35:21;19.30;99.90
6462;DHT22;3264;42.862;25.098;2023-07-20T02:37:50;19.40;99.90
6462;DHT22;3264;42.862;25.098;2023-07-20T02:40:17;19.40;99.90
6462;DHT22;3264;42.862;25.098;2023-07-20T02:42:49;19.30;99.90
6462;DHT22;3264;42.862;25.098;2023-07-20T02:45:16;19.40;99.90
6462;DHT22;3264;42.862;25.098;2023-07-20T02:47:48;19.50;99.90
6462;DHT22;3264;42.862;25.098;2023-07-20T02:50:16;19.40;99.90
6462;DHT22;3264;42.862;25.098;2023-07-20T02:52:46;19.40;99.90
6462;DHT22;3264;42.862;25.098;2023-07-20T02:55:27;19.40;99.90
6462;DHT22;3264;42.862;25.098;2023-07-20T02:57:58;19.30;99.90
6462;DHT22;3264;42.862;25.098;2023-07-20T03:00:28;19.30;99.90
6462;DHT22;3264;42.862;25.098;2023-07-20T03:03:00;19.30;99.90
6462;DHT22;3264;42.862;25.098;2023-07-20T03:05:40;19.20;99.90
6462;DHT22;3264;42.862;25.098;2023-07-20T03:08:08;19.30;99.90
6462;DHT22;3264;42.862;25.098;2023-07-20T03:10:42;19.10;99.90
6462;DHT22;3264;42.862;25.098;2023-07-20T03:13:14;19.10;99.90
6462;DHT22;3264;42.862;25.098;2023-07-20T03:15:43;19.10;99.90
6462;DHT22;3264;42.862;25.098;2023-07-20T03:18:10;19.20;99.90
6462;DHT22;3264;42.862;25.098;2023-07-20T03:20:47;19.20;99.90
6462;DHT22;3264;42.862;25.098;2023-07-20T03:23:18;19.20;99.90
6462;DHT22;3264;42.862;25.098;2023-07-20T03:25:49;19.20;99.90
6462;DHT22;3264;42.862;25.098;2023-07-20T03:28:23;19.20;99.90
6462;DHT22;3264;42.862;25.098;2023-07-20T03:30:55;19.20;99.90
6462;DHT22;3264;42.862;25.098;2023-07-20T03:33:27;19.20;99.90
6462;DHT22;3264;42.862;25.098;2023-07-20T03:35:57;19.20;99.90
6462;DHT22;3264;42.862;25.098;2023-07-20T03:38:28;19.30;99.90
6462;DHT22;3264;42.862;25.098;2023-07-20T03:41:05;19.40;99.90
6462;DHT22;3264;42.862;25.098;2023-07-20T03:43:38;19.50;99.90
6462;DHT22;3264;42.862;25.098;2023-07-20T03:46:06;19.50;99.90
6462;DHT22;3264;42.862;25.098;2023-07-20T03:48:36;19.60;99.90
6462;DHT22;3264;42.862;25.098;2023-07-20T03:51:06;19.60;99.90
6462;DHT22;3264;42.862;25.098;2023-07-20T03:53:36;19.60;99.90
6462;DHT22;3264;42.862;25.098;2023-07-20T03:56:10;19.60;99.90
6462;DHT22;3264;42.862;25.098;2023-07-20T03:58:40;19.70;99.90
6462;DHT22;3264;42.862;25.098;2023-07-20T04:01:08;19.70;99.90
6462;DHT22;3264;42.862;25.098;2023-07-20T04:03:40;19.70;99.90
6462;DHT22;3264;42.862;25.098;2023-07-20T04:06:10;19.80;99.90
6462;DHT22;3264;42.862;25.098;2023-07-20T04:08:42;19.80;99.90
6462;DHT22;3264;42.862;25.098;2023-07-20T04:11:22;19.90;99.90
6462;DHT22;3264;42.862;25.098;2023-07-20T04:13:51;19.80;99.90
6462;DHT22;3264;42.862;25.098;2023-07-20T04:16:22;19.80;99.90
6462;DHT22;3264;42.862;25.098;2023-07-20T04:18:54;19.80;99.90
6462;DHT22;3264;42.862;25.098;2023-07-20T04:21:25;19.70;99.90
6462;DHT22;3264;42.862;25.098;2023-07-20T04:23:54;19.70;99.90
6462;DHT22;3264;42.862;25.098;2023-07-20T04:26:46;19.80;99.90
6462;DHT22;3264;42.862;25.098;2023-07-20T04:29:29;19.80;99.90
6462;DHT22;3264;42.862;25.098;2023-07-20T04:31:58;19.80;99.90
6462;DHT22;3264;42.862;25.098;2023-07-20T04:34:29;19.80;99.90
6462;DHT22;3264;42.862;25.098;2023-07-20T04:36:59;19.80;99.90
6462;DHT22;3264;42.862;25.098;2023-07-20T04:39:34;19.90;99.90
6462;DHT22;3264;42.862;25.098;2023-07-20T04:42:04;19.90;99.90
6462;DHT22;3264;42.862;25.098;2023-07-20T04:44:32;20.00;99.90
6462;DHT22;3264;42.862;25.098;2023-07-20T04:47:03;20.00;99.90
6462;DHT22;3264;42.862;25.098;2023-07-20T04:49:31;20.00;99.90
6462;DHT22;3264;42.862;25.098;2023-07-20T04:52:04;20.20;99.90
6462;DHT22;3264;42.862;25.098;2023-07-20T04:54:34;20.50;99.90
6462;DHT22;3264;42.862;25.098;2023-07-20T04:57:11;20.60;99.90
6462;DHT22;3264;42.862;25.098;2023-07-20T04:59:38;20.70;99.90
6462;DHT22;3264;42.862;25.098;2023-07-20T05:02:18;20.70;99.90
6462;DHT22;3264;42.862;25.098;2023-07-20T05:04:49;20.80;99.90
6462;DHT22;3264;42.862;25.098;2023-07-20T05:07:23;20.90;99.90
6462;DHT22;3264;42.862;25.098;2023-07-20T05:10:09;21.00;99.90
6462;DHT22;3264;42.862;25.098;2023-07-20T05:12:42;21.10;99.90
6462;DHT22;3264;42.862;25.098;2023-07-20T05:15:13;21.10;99.90
6462;DHT22;3264;42.862;25.098;2023-07-20T05:17:41;21.10;99.90
6462;DHT22;3264;42.862;25.098;2023-07-20T05:20:10;21.10;99.90
6462;DHT22;3264;42.862;25.098;2023-07-20T05:22:38;21.10;99.90
6462;DHT22;3264;42.862;25.098;2023-07-20T05:25:12;21.10;99.90
6462;DHT22;3264;42.862;25.098;2023-07-20T05:27:48;21.20;99.90
6462;DHT22;3264;42.862;25.098;2023-07-20T05:30:16;21.20;99.90
6462;DHT22;3264;42.862;25.098;2023-07-20T05:32:46;21.30;99.90
6462;DHT22;3264;42.862;25.098;2023-07-20T05:35:17;21.40;99.90
6462;DHT22;3264;42.862;25.098;2023-07-20T05:37:46;21.60;99.90
6462;DHT22;3264;42.862;25.098;2023-07-20T05:40:15;21.90;99.90
6462;DHT22;3264;42.862;25.098;2023-07-20T05:42:47;22.00;99.90
6462;DHT22;3264;42.862;25.098;2023-07-20T05:45:19;22.40;99.90
6462;DHT22;3264;42.862;25.098;2023-07-20T05:47:46;22.50;99.90
6462;DHT22;3264;42.862;25.098;2023-07-20T05:50:15;22.70;99.90
6462;DHT22;3264;42.862;25.098;2023-07-20T05:52:44;23.00;99.90
6462;DHT22;3264;42.862;25.098;2023-07-20T05:55:13;23.10;99.90
6462;DHT22;3264;42.862;25.098;2023-07-20T05:57:41;23.40;99.90
6462;DHT22;3264;42.862;25.098;2023-07-20T06:00:12;23.80;99.90
6462;DHT22;3264;42.862;25.098;2023-07-20T06:02:40;24.10;99.90
6462;DHT22;3264;42.862;25.098;2023-07-20T06:05:09;24.20;99.90
6462;DHT22;3264;42.862;25.098;2023-07-20T06:07:37;24.40;99.90
6462;DHT22;3264;42.862;25.098;2023-07-20T06:10:07;24.60;99.90
6462;DHT22;3264;42.862;25.098;2023-07-20T06:12:34;24.60;99.90
6462;DHT22;3264;42.862;25.098;2023-07-20T06:15:04;24.90;99.90
6462;DHT22;3264;42.862;25.098;2023-07-20T06:17:34;24.70;99.90
6462;DHT22;3264;42.862;25.098;2023-07-20T06:20:06;24.90;99.90
6462;DHT22;3264;42.862;25.098;2023-07-20T06:22:34;25.40;99.90
6462;DHT22;3264;42.862;25.098;2023-07-20T06:25:08;25.90;99.90
6462;DHT22;3264;42.862;25.098;2023-07-20T06:27:36;26.30;99.90
6462;DHT22;3264;42.862;25.098;2023-07-20T06:30:06;26.50;99.90
6462;DHT22;3264;42.862;25.098;2023-07-20T06:32:38;26.50;99.90
6462;DHT22;3264;42.862;25.098;2023-07-20T06:35:06;26.60;99.90
6462;DHT22;3264;42.862;25.098;2023-07-20T06:37:34;26.60;99.90
6462;DHT22;3264;42.862;25.098;2023-07-20T06:40:14;26.60;99.90
6462;DHT22;3264;42.862;25.098;2023-07-20T06:42:42;26.60;99.90
6462;DHT22;3264;42.862;25.098;2023-07-20T06:45:10;27.00;99.90
6462;DHT22;3264;42.862;25.098;2023-07-20T06:47:41;27.00;99.90
6462;DHT22;3264;42.862;25.098;2023-07-20T06:50:09;27.40;99.90
6462;DHT22;3264;42.862;25.098;2023-07-20T06:52:38;27.40;99.90
6462;DHT22;3264;42.862;25.098;2023-07-20T06:55:07;27.80;99.90
6462;DHT22;3264;42.862;25.098;2023-07-20T06:57:35;27.80;99.90
6462;DHT22;3264;42.862;25.098;2023-07-20T07:00:06;27.80;99.90
6462;DHT22;3264;42.862;25.098;2023-07-20T07:05:58;27.70;99.90
6462;DHT22;3264;42.862;25.098;2023-07-20T07:08:26;27.80;99.90
6462;DHT22;3264;42.862;25.098;2023-07-20T07:10:54;27.80;99.90
6462;DHT22;3264;42.862;25.098;2023-07-20T07:13:22;28.00;99.90
6462;DHT22;3264;42.862;25.098;2023-07-20T07:15:50;28.10;99.90
6462;DHT22;3264;42.862;25.098;2023-07-20T07:18:18;28.30;99.90
6462;DHT22;3264;42.862;25.098;2023-07-20T07:20:52;28.60;99.90
6462;DHT22;3264;42.862;25.098;2023-07-20T07:23:22;28.30;99.90
6462;DHT22;3264;42.862;25.098;2023-07-20T07:25:49;28.30;99.90
6462;DHT22;3264;42.862;25.098;2023-07-20T07:28:18;28.10;99.90
6462;DHT22;3264;42.862;25.098;2023-07-20T07:30:47;28.00;99.90
6462;DHT22;3264;42.862;25.098;2023-07-20T07:33:15;28.60;99.90
6462;DHT22;3264;42.862;25.098;2023-07-20T07:35:43;28.20;99.90
6462;DHT22;3264;42.862;25.098;2023-07-20T07:38:17;28.60;99.90
6462;DHT22;3264;42.862;25.098;2023-07-20T07:40:49;29.10;99.90
6462;DHT22;3264;42.862;25.098;2023-07-20T07:43:17;29.00;99.90
6462;DHT22;3264;42.862;25.098;2023-07-20T07:45:45;29.10;99.40
6462;DHT22;3264;42.862;25.098;2023-07-20T07:48:16;29.00;99.40
6462;DHT22;3264;42.862;25.098;2023-07-20T07:50:44;28.40;99.90
6462;DHT22;3264;42.862;25.098;2023-07-20T07:53:12;28.20;99.90
6462;DHT22;3264;42.862;25.098;2023-07-20T07:55:40;28.20;99.90
6462;DHT22;3264;42.862;25.098;2023-07-20T07:58:10;28.60;99.90
6462;DHT22;3264;42.862;25.098;2023-07-20T08:00:38;28.60;99.90
6462;DHT22;3264;42.862;25.098;2023-07-20T08:03:07;28.90;99.90
6462;DHT22;3264;42.862;25.098;2023-07-20T08:05:35;28.80;99.90
6462;DHT22;3264;42.862;25.098;2023-07-20T08:08:07;28.20;99.90
6462;DHT22;3264;42.862;25.098;2023-07-20T08:10:35;28.20;99.90
6462;DHT22;3264;42.862;25.098;2023-07-20T08:13:04;27.90;99.90
6462;DHT22;3264;42.862;25.098;2023-07-20T08:15:33;27.90;99.90
6462;DHT22;3264;42.862;25.098;2023-07-20T08:18:03;28.30;99.90
6462;DHT22;3264;42.862;25.098;2023-07-20T08:20:43;28.40;99.90
6462;DHT22;3264;42.862;25.098;2023-07-20T08:23:10;28.70;99.90
6462;DHT22;3264;42.862;25.098;2023-07-20T08:25:42;29.00;99.90
6462;DHT22;3264;42.862;25.098;2023-07-20T08:28:11;29.20;99.50
6462;DHT22;3264;42.862;25.098;2023-07-20T08:30:44;29.50;98.60
6462;DHT22;3264;42.862;25.098;2023-07-20T08:33:13;29.70;97.20
6462;DHT22;3264;42.862;25.098;2023-07-20T08:35:41;29.70;96.10
6462;DHT22;3264;42.862;25.098;2023-07-20T08:38:10;30.20;97.00
6462;DHT22;3264;42.862;25.098;2023-07-20T08:40:42;30.00;97.50
6462;DHT22;3264;42.862;25.098;2023-07-20T08:43:28;29.90;98.30
6462;DHT22;3264;42.862;25.098;2023-07-20T08:46:11;29.90;95.70
6462;DHT22;3264;42.862;25.098;2023-07-20T08:48:42;29.80;97.10
6462;DHT22;3264;42.862;25.098;2023-07-20T08:51:11;30.50;98.00
6462;DHT22;3264;42.862;25.098;2023-07-20T08:53:39;30.40;96.90
6462;DHT22;3264;42.862;25.098;2023-07-20T08:56:14;30.40;95.30
6462;DHT22;3264;42.862;25.098;2023-07-20T08:58:45;30.30;97.60
6462;DHT22;3264;42.862;25.098;2023-07-20T09:01:14;30.20;96.40
6462;DHT22;3264;42.862;25.098;2023-07-20T09:03:44;29.80;95.60
6462;DHT22;3264;42.862;25.098;2023-07-20T09:06:12;30.10;95.20
6462;DHT22;3264;42.862;25.098;2023-07-20T09:08:41;29.60;96.30
6462;DHT22;3264;42.862;25.098;2023-07-20T09:11:11;29.50;96.30
6462;DHT22;3264;42.862;25.098;2023-07-20T09:13:39;29.60;93.50
6462;DHT22;3264;42.862;25.098;2023-07-20T09:16:07;29.80;96.10
6462;DHT22;3264;42.862;25.098;2023-07-20T09:18:36;30.20;94.60
6462;DHT22;3264;42.862;25.098;2023-07-20T09:21:05;29.60;94.30
6462;DHT22;3264;42.862;25.098;2023-07-20T09:23:34;30.10;96.00
6462;DHT22;3264;42.862;25.098;2023-07-20T09:26:10;30.30;93.30
6462;DHT22;3264;42.862;25.098;2023-07-20T09:28:42;30.30;92.00
6462;DHT22;3264;42.862;25.098;2023-07-20T09:31:16;30.70;94.20
6462;DHT22;3264;42.862;25.098;2023-07-20T09:33:48;31.10;94.80
6462;DHT22;3264;42.862;25.098;2023-07-20T09:36:15;30.20;92.90
6462;DHT22;3264;42.862;25.098;2023-07-20T09:38:43;29.60;92.20
6462;DHT22;3264;42.862;25.098;2023-07-20T09:41:14;29.50;93.60
6462;DHT22;3264;42.862;25.098;2023-07-20T09:43:43;29.40;94.00
6462;DHT22;3264;42.862;25.098;2023-07-20T09:46:11;29.80;91.70
6462;DHT22;3264;42.862;25.098;2023-07-20T09:48:39;30.10;92.20
6462;DHT22;3264;42.862;25.098;2023-07-20T09:51:10;30.40;91.30
6462;DHT22;3264;42.862;25.098;2023-07-20T09:53:38;30.10;90.40
6462;DHT22;3264;42.862;25.098;2023-07-20T09:56:06;30.10;92.60
6462;DHT22;3264;42.862;25.098;2023-07-20T09:58:34;30.40;93.10
6462;DHT22;3264;42.862;25.098;2023-07-20T10:01:08;30.50;93.40
6462;DHT22;3264;42.862;25.098;2023-07-20T10:03:38;30.30;91.90
6462;DHT22;3264;42.862;25.098;2023-07-20T10:06:08;30.50;92.60
6462;DHT22;3264;42.862;25.098;2023-07-20T10:08:41;30.50;92.60
6462;DHT22;3264;42.862;25.098;2023-07-20T10:11:09;30.70;92.00
6462;DHT22;3264;42.862;25.098;2023-07-20T10:13:39;31.00;91.80
6462;DHT22;3264;42.862;25.098;2023-07-20T10:16:14;30.80;91.30
6462;DHT22;3264;42.862;25.098;2023-07-20T10:18:51;30.70;90.00
6462;DHT22;3264;42.862;25.098;2023-07-20T10:21:22;31.00;90.60
6462;DHT22;3264;42.862;25.098;2023-07-20T10:23:51;30.80;90.00
6462;DHT22;3264;42.862;25.098;2023-07-20T10:26:19;30.90;89.50
6462;DHT22;3264;42.862;25.098;2023-07-20T10:28:47;30.90;87.20
6462;DHT22;3264;42.862;25.098;2023-07-20T10:31:16;31.00;91.10
6462;DHT22;3264;42.862;25.098;2023-07-20T10:33:45;31.00;90.80
6462;DHT22;3264;42.862;25.098;2023-07-20T10:36:13;31.10;90.60
6462;DHT22;3264;42.862;25.098;2023-07-20T10:38:54;31.20;90.60
6462;DHT22;3264;42.862;25.098;2023-07-20T10:41:28;31.30;91.60
6462;DHT22;3264;42.862;25.098;2023-07-20T10:44:00;31.20;90.00
6462;DHT22;3264;42.862;25.098;2023-07-20T10:46:35;30.90;90.00
6462;DHT22;3264;42.862;25.098;2023-07-20T10:49:10;31.30;89.10
6462;DHT22;3264;42.862;25.098;2023-07-20T10:51:42;31.70;90.70
6462;DHT22;3264;42.862;25.098;2023-07-20T10:54:36;31.70;90.10
6462;DHT22;3264;42.862;25.098;2023-07-20T10:57:42;31.70;86.70
6462;DHT22;3264;42.862;25.098;2023-07-20T11:00:12;31.70;86.60
6462;DHT22;3264;42.862;25.098;2023-07-20T11:02:44;31.70;90.60
6462;DHT22;3264;42.862;25.098;2023-07-20T11:05:35;31.60;86.60
6462;DHT22;3264;42.862;25.098;2023-07-20T11:08:11;31.40;86.40
6462;DHT22;3264;42.862;25.098;2023-07-20T11:10:41;31.00;87.10
6462;DHT22;3264;42.862;25.098;2023-07-20T11:13:20;31.20;87.50
6462;DHT22;3264;42.862;25.098;2023-07-20T11:16:07;31.30;84.70
6462;DHT22;3264;42.862;25.098;2023-07-20T11:18:35;31.70;90.30
6462;DHT22;3264;42.862;25.098;2023-07-20T11:21:09;31.40;87.80
6462;DHT22;3264;42.862;25.098;2023-07-20T11:23:38;31.20;87.70
6462;DHT22;3264;42.862;25.098;2023-07-20T11:26:10;31.40;90.00
6462;DHT22;3264;42.862;25.098;2023-07-20T11:28:38;31.40;85.70
6462;DHT22;3264;42.862;25.098;2023-07-20T11:31:08;31.70;86.20
6462;DHT22;3264;42.862;25.098;2023-07-20T11:33:38;31.70;86.00
6462;DHT22;3264;42.862;25.098;2023-07-20T11:36:08;31.60;85.10
6462;DHT22;3264;42.862;25.098;2023-07-20T11:38:36;31.30;81.00
6462;DHT22;3264;42.862;25.098;2023-07-20T11:41:06;31.20;87.40
6462;DHT22;3264;42.862;25.098;2023-07-20T11:43:35;31.30;89.90
6462;DHT22;3264;42.862;25.098;2023-07-20T11:46:05;31.50;90.60
6462;DHT22;3264;42.862;25.098;2023-07-20T11:48:33;31.90;81.90
6462;DHT22;3264;42.862;25.098;2023-07-20T11:51:00;32.20;84.80
6462;DHT22;3264;42.862;25.098;2023-07-20T11:53:29;31.80;82.90
6462;DHT22;3264;42.862;25.098;2023-07-20T11:55:58;31.40;88.90
6462;DHT22;3264;42.862;25.098;2023-07-20T11:58:28;31.40;84.30
6462;DHT22;3264;42.862;25.098;2023-07-20T12:00:58;30.90;83.90
6462;DHT22;3264;42.862;25.098;2023-07-20T12:03:25;30.30;88.40
6462;DHT22;3264;42.862;25.098;2023-07-20T12:06:06;30.10;90.40
6462;DHT22;3264;42.862;25.098;2023-07-20T12:08:35;29.80;93.20
6462;DHT22;3264;42.862;25.098;2023-07-20T12:11:05;29.90;94.20
6462;DHT22;3264;42.862;25.098;2023-07-20T12:13:40;29.90;94.60
6462;DHT22;3264;42.862;25.098;2023-07-20T12:16:14;30.30;90.10
6462;DHT22;3264;42.862;25.098;2023-07-20T12:18:44;30.40;90.60
6462;DHT22;3264;42.862;25.098;2023-07-20T12:21:11;30.40;91.20
6462;DHT22;3264;42.862;25.098;2023-07-20T12:23:40;30.30;92.20
6462;DHT22;3264;42.862;25.098;2023-07-20T12:26:10;30.20;92.90
6462;DHT22;3264;42.862;25.098;2023-07-20T12:28:42;29.70;91.80
6462;DHT22;3264;42.862;25.098;2023-07-20T12:31:10;29.80;92.30
6462;DHT22;3264;42.862;25.098;2023-07-20T12:33:43;30.30;90.50
6462;DHT22;3264;42.862;25.098;2023-07-20T12:36:11;30.60;89.10
6462;DHT22;3264;42.862;25.098;2023-07-20T12:38:39;31.00;87.50
6462;DHT22;3264;42.862;25.098;2023-07-20T12:41:10;31.10;92.40
6462;DHT22;3264;42.862;25.098;2023-07-20T12:43:40;30.90;93.70
6462;DHT22;3264;42.862;25.098;2023-07-20T12:46:08;30.70;91.40
6462;DHT22;3264;42.862;25.098;2023-07-20T12:48:36;30.70;84.90
6462;DHT22;3264;42.862;25.098;2023-07-20T12:51:08;30.50;83.30
6462;DHT22;3264;42.862;25.098;2023-07-20T12:53:36;30.40;84.10
6462;DHT22;3264;42.862;25.098;2023-07-20T12:56:05;30.80;87.20
6462;DHT22;3264;42.862;25.098;2023-07-20T12:58:32;31.10;81.90
6462;DHT22;3264;42.862;25.098;2023-07-20T13:01:00;31.40;82.20
6462;DHT22;3264;42.862;25.098;2023-07-20T13:03:40;31.10;85.10
6462;DHT22;3264;42.862;25.098;2023-07-20T13:06:10;31.30;82.80
6462;DHT22;3264;42.862;25.098;2023-07-20T13:08:37;30.70;82.30
6462;DHT22;3264;42.862;25.098;2023-07-20T13:11:06;30.50;84.20
6462;DHT22;3264;42.862;25.098;2023-07-20T13:13:34;30.80;85.20
6462;DHT22;3264;42.862;25.098;2023-07-20T13:16:01;30.90;89.70
6462;DHT22;3264;42.862;25.098;2023-07-20T13:18:29;30.50;84.40
6462;DHT22;3264;42.862;25.098;2023-07-20T13:20:56;30.30;86.50
6462;DHT22;3264;42.862;25.098;2023-07-20T13:23:26;30.40;91.80
6462;DHT22;3264;42.862;25.098;2023-07-20T13:25:53;30.30;92.10
6462;DHT22;3264;42.862;25.098;2023-07-20T13:28:21;30.40;91.40
6462;DHT22;3264;42.862;25.098;2023-07-20T13:30:49;30.40;92.40
6462;DHT22;3264;42.862;25.098;2023-07-20T13:33:16;30.60;93.60
6462;DHT22;3264;42.862;25.098;2023-07-20T13:35:45;30.70;92.70
6462;DHT22;3264;42.862;25.098;2023-07-20T13:38:13;30.80;91.70
6462;DHT22;3264;42.862;25.098;2023-07-20T13:40:44;31.00;85.40
6462;DHT22;3264;42.862;25.098;2023-07-20T13:43:11;31.10;90.00
6462;DHT22;3264;42.862;25.098;2023-07-20T13:45:39;30.90;91.20
6462;DHT22;3264;42.862;25.098;2023-07-20T13:48:07;30.90;90.90
6462;DHT22;3264;42.862;25.098;2023-07-20T13:50:35;30.80;93.00
6462;DHT22;3264;42.862;25.098;2023-07-20T13:53:03;30.90;91.70
6462;DHT22;3264;42.862;25.098;2023-07-20T13:55:31;31.10;91.20
6462;DHT22;3264;42.862;25.098;2023-07-20T13:58:04;31.10;92.60
6462;DHT22;3264;42.862;25.098;2023-07-20T14:00:33;31.00;92.90
6462;DHT22;3264;42.862;25.098;2023-07-20T14:03:00;31.20;93.10
6462;DHT22;3264;42.862;25.098;2023-07-20T14:05:28;31.30;90.20
6462;DHT22;3264;42.862;25.098;2023-07-20T14:07:57;31.10;91.70
6462;DHT22;3264;42.862;25.098;2023-07-20T14:10:25;30.90;93.40
6462;DHT22;3264;42.862;25.098;2023-07-20T14:12:53;31.00;93.00
6462;DHT22;3264;42.862;25.098;2023-07-20T14:15:22;31.00;92.10
6462;DHT22;3264;42.862;25.098;2023-07-20T14:17:50;30.90;91.20
6462;DHT22;3264;42.862;25.098;2023-07-20T14:20:18;30.70;92.90
6462;DHT22;3264;42.862;25.098;2023-07-20T14:22:46;30.50;94.00
6462;DHT22;3264;42.862;25.098;2023-07-20T14:25:16;30.50;91.80
6462;DHT22;3264;42.862;25.098;2023-07-20T14:27:44;30.40;92.80
6462;DHT22;3264;42.862;25.098;2023-07-20T14:30:12;30.60;92.00
6462;DHT22;3264;42.862;25.098;2023-07-20T14:32:43;30.70;94.00
6462;DHT22;3264;42.862;25.098;2023-07-20T14:35:11;30.60;93.90
6462;DHT22;3264;42.862;25.098;2023-07-20T14:37:41;30.70;94.60
6462;DHT22;3264;42.862;25.098;2023-07-20T14:40:10;30.90;94.40
6462;DHT22;3264;42.862;25.098;2023-07-20T14:42:41;30.90;93.50
6462;DHT22;3264;42.862;25.098;2023-07-20T14:45:09;30.90;92.30
6462;DHT22;3264;42.862;25.098;2023-07-20T14:47:36;30.80;92.40
6462;DHT22;3264;42.862;25.098;2023-07-20T14:50:06;30.70;94.30
6462;DHT22;3264;42.862;25.098;2023-07-20T14:52:34;30.50;94.30
6462;DHT22;3264;42.862;25.098;2023-07-20T14:55:03;30.30;95.30
6462;DHT22;3264;42.862;25.098;2023-07-20T14:57:31;29.80;97.10
6462;DHT22;3264;42.862;25.098;2023-07-20T14:59:59;29.50;98.50
6462;DHT22;3264;42.862;25.098;2023-07-20T15:02:27;29.20;98.80
6462;DHT22;3264;42.862;25.098;2023-07-20T15:04:54;29.00;99.90
6462;DHT22;3264;42.862;25.098;2023-07-20T15:07:25;29.00;99.90
6462;DHT22;3264;42.862;25.098;2023-07-20T15:09:53;29.10;99.80
6462;DHT22;3264;42.862;25.098;2023-07-20T15:12:21;29.50;98.60
6462;DHT22;3264;42.862;25.098;2023-07-20T15:15:03;29.70;95.40
6462;DHT22;3264;42.862;25.098;2023-07-20T15:17:31;30.00;94.50
6462;DHT22;3264;42.862;25.098;2023-07-20T15:20:00;30.10;96.80
6462;DHT22;3264;42.862;25.098;2023-07-20T15:22:32;30.10;97.30
6462;DHT22;3264;42.862;25.098;2023-07-20T15:25:00;30.10;97.30
6462;DHT22;3264;42.862;25.098;2023-07-20T15:27:29;30.10;98.00
6462;DHT22;3264;42.862;25.098;2023-07-20T15:29:57;30.00;95.80
6462;DHT22;3264;42.862;25.098;2023-07-20T15:32:27;29.90;97.10
6462;DHT22;3264;42.862;25.098;2023-07-20T15:34:55;29.70;98.10
6462;DHT22;3264;42.862;25.098;2023-07-20T15:37:24;29.60;99.20
6462;DHT22;3264;42.862;25.098;2023-07-20T15:39:55;29.40;99.20
6462;DHT22;3264;42.862;25.098;2023-07-20T15:42:26;29.40;98.50
6462;DHT22;3264;42.862;25.098;2023-07-20T15:44:55;29.30;95.90
6462;DHT22;3264;42.862;25.098;2023-07-20T15:47:23;29.20;97.10
6462;DHT22;3264;42.862;25.098;2023-07-20T15:49:52;28.90;98.90
6462;DHT22;3264;42.862;25.098;2023-07-20T15:52:20;28.90;99.70
6462;DHT22;3264;42.862;25.098;2023-07-20T15:54:49;28.70;99.40
6462;DHT22;3264;42.862;25.098;2023-07-20T15:57:21;28.80;99.90
6462;DHT22;3264;42.862;25.098;2023-07-20T15:59:49;28.60;99.80
6462;DHT22;3264;42.862;25.098;2023-07-20T16:02:20;28.60;98.90
6462;DHT22;3264;42.862;25.098;2023-07-20T16:04:49;28.60;99.40
6462;DHT22;3264;42.862;25.098;2023-07-20T16:07:16;28.30;96.40
6462;DHT22;3264;42.862;25.098;2023-07-20T16:09:44;28.30;95.80
6462;DHT22;3264;42.862;25.098;2023-07-20T16:12:11;28.10;96.20
6462;DHT22;3264;42.862;25.098;2023-07-20T16:14:42;28.10;95.50
6462;DHT22;3264;42.862;25.098;2023-07-20T16:17:12;28.20;95.60
6462;DHT22;3264;42.862;25.098;2023-07-20T16:19:40;28.20;98.80
6462;DHT22;3264;42.862;25.098;2023-07-20T16:22:08;28.20;97.80
6462;DHT22;3264;42.862;25.098;2023-07-20T16:24:37;28.00;99.00
6462;DHT22;3264;42.862;25.098;2023-07-20T16:27:06;27.90;96.00
6462;DHT22;3264;42.862;25.098;2023-07-20T16:29:36;27.80;98.20